Wan Hai 510 — 9VJJ8 — position and weather

sailwx.info

Track history (hours):
 
Tides and Currents Weather Stations Pressure Air Temp Water Temp Dewpoint Dewpoint Depression Visibility Wind Speed Wind Dir Waves Ship Positions

Wan Hai 510

Last reported at 2017-Sep-18 01:26 UTC. Time now 2017-Sep-21 10:52 UTC.
Position N 01°19' E 103°20'.

Length 269 m; draft 10.9 m.

Type: Ship. MMSI: 565706755.

Date/timePositionNaut miles runAvg speedWind from/ knotsBaromVisibWave heightAir tempDewpointWater temp
2017-Sep-18 01:26N 01°19' E 103°20'817.1
2017-Sep-18 00:59N 01°14' E 103°26'918.0
2017-Sep-18 00:30N 01°12' E 103°35'5 9.9
2017-Sep-18 00:00N 01°12' E 103°40'612.2
2017-Sep-17 23:30N 01°16' E 103°45'1 2.8
2017-Sep-17 23:00N 01°17' E 103°45'0 0.0
2017-Sep-17 22:28N 01°17' E 103°45'0 0.0
2017-Sep-17 21:55N 01°17' E 103°45'0 0.0
2017-Sep-17 21:28N 01°17' E 103°45'0 0.0
2017-Sep-17 20:52N 01°17' E 103°45'0 0.0
2017-Sep-17 20:28N 01°17' E 103°45'0 0.0
2017-Sep-17 19:58N 01°17' E 103°45'0 0.0
2017-Sep-17 19:28N 01°17' E 103°45'0 0.0
2017-Sep-17 18:58N 01°17' E 103°45'0 0.0
2017-Sep-17 18:28N 01°17' E 103°45'0 0.0
2017-Sep-17 17:58N 01°17' E 103°45'0 0.0
2017-Sep-17 17:28N 01°17' E 103°45'0 0.0
2017-Sep-17 16:52N 01°17' E 103°45'0 0.0
2017-Sep-17 16:25N 01°17' E 103°45'0 0.0
2017-Sep-17 15:58N 01°17' E 103°45'0 0.0
2017-Sep-17 15:28N 01°17' E 103°45'0 0.0
2017-Sep-17 14:58N 01°17' E 103°45'0 0.0
2017-Sep-17 14:28N 01°17' E 103°45'0 0.6
2017-Sep-17 14:00N 01°17' E 103°46'1 2.6
2017-Sep-17 13:30N 01°16' E 103°46'5 9.9
2017-Sep-17 13:00N 01°13' E 103°49'5 9.4
2017-Sep-17 12:30N 01°14' E 103°54'2 4.7
2017-Sep-17 12:00N 01°14' E 103°56'4 8.8
2017-Sep-17 11:30N 01°16' E 104°00'  
2017-Sep-13 12:49N 22°26' E 113°53'2 7.2
2017-Sep-13 12:30N 22°24' E 113°54'13 0.9
2017-Sep-12 21:06N 22°20' E 114°07'28310.8
2017-Sep-11 18:57N 22°30' E 119°13'1218.8
2017-Sep-11 18:20N 22°31' E 119°25'619.2
2017-Sep-11 18:00N 22°31' E 119°32'1318.9
2017-Sep-11 17:18N 22°31' E 119°46'818.7
2017-Sep-11 16:53N 22°32' E 119°55'718.8
2017-Sep-11 16:31N 22°32' E 120°02'1019.1
2017-Sep-11 16:00N 22°33' E 120°13'612.4
2017-Sep-11 15:30N 22°33' E 120°19'0 0.9
2017-Sep-11 15:00N 22°33' E 120°20'0 0.0
2017-Sep-11 14:25N 22°33' E 120°20'0 0.0
2017-Sep-11 13:58N 22°33' E 120°20'0 0.0
2017-Sep-11 13:19N 22°33' E 120°20'0 0.0
2017-Sep-11 12:49N 22°33' E 120°20'0 0.0
2017-Sep-11 08:49N 22°33' E 120°20'0 0.0
2017-Sep-11 08:19N 22°33' E 120°20'0 0.0
2017-Sep-10 23:22N 22°33' E 120°20'0 0.0
2017-Sep-10 22:49N 22°33' E 120°20'0 0.0
2017-Sep-10 22:13N 22°33' E 120°20'0 0.0
2017-Sep-10 21:55N 22°33' E 120°20'0 0.0
2017-Sep-10 21:28N 22°33' E 120°20'0 0.0
2017-Sep-10 20:55N 22°33' E 120°20'0 0.0
2017-Sep-10 20:28N 22°33' E 120°20'0 0.0
2017-Sep-10 19:46N 22°33' E 120°20'0 0.0
2017-Sep-10 19:28N 22°33' E 120°20'0 0.0
2017-Sep-10 18:58N 22°33' E 120°20'0 0.0
2017-Sep-10 18:28N 22°33' E 120°20'0 0.0
2017-Sep-10 18:00N 22°33' E 120°20'1 2.5
2017-Sep-10 17:30N 22°33' E 120°18'4 8.0
2017-Sep-10 17:00N 22°32' E 120°14'510.3
2017-Sep-10 16:30N 22°28' E 120°10'816.8
2017-Sep-10 16:00N 22°22' E 120°04'1120.5
2017-Sep-10 15:30N 22°15' E 119°56'  
Track history (hours):
 
Tides and Currents Weather Stations Pressure Air Temp Water Temp Dewpoint Dewpoint Depression Visibility Wind Speed Wind Dir Waves Ship Positions

Wan Hai 510

Last reported at 2017-Sep-18 01:26 UTC. Time now 2017-Sep-21 10:52 UTC.
Position N 01°19' E 103°20'.

Length 269 m; draft 10.9 m.

Type: Ship. MMSI: 565706755.

Date/timePositionNaut miles runAvg speedWind from/ knotsBaromVisibWave heightAir tempDewpointWater temp
2017-Sep-18 01:26N 01°19' E 103°20'817.1
2017-Sep-18 00:59N 01°14' E 103°26'918.0
2017-Sep-18 00:30N 01°12' E 103°35'5 9.9
2017-Sep-18 00:00N 01°12' E 103°40'612.2
2017-Sep-17 23:30N 01°16' E 103°45'1 2.8
2017-Sep-17 23:00N 01°17' E 103°45'0 0.0
2017-Sep-17 22:28N 01°17' E 103°45'0 0.0
2017-Sep-17 21:55N 01°17' E 103°45'0 0.0
2017-Sep-17 21:28N 01°17' E 103°45'0 0.0
2017-Sep-17 20:52N 01°17' E 103°45'0 0.0
2017-Sep-17 20:28N 01°17' E 103°45'0 0.0
2017-Sep-17 19:58N 01°17' E 103°45'0 0.0
2017-Sep-17 19:28N 01°17' E 103°45'0 0.0
2017-Sep-17 18:58N 01°17' E 103°45'0 0.0
2017-Sep-17 18:28N 01°17' E 103°45'0 0.0
2017-Sep-17 17:58N 01°17' E 103°45'0 0.0
2017-Sep-17 17:28N 01°17' E 103°45'0 0.0
2017-Sep-17 16:52N 01°17' E 103°45'0 0.0
2017-Sep-17 16:25N 01°17' E 103°45'0 0.0
2017-Sep-17 15:58N 01°17' E 103°45'0 0.0
2017-Sep-17 15:28N 01°17' E 103°45'0 0.0
2017-Sep-17 14:58N 01°17' E 103°45'0 0.0
2017-Sep-17 14:28N 01°17' E 103°45'0 0.6
2017-Sep-17 14:00N 01°17' E 103°46'1 2.6
2017-Sep-17 13:30N 01°16' E 103°46'5 9.9
2017-Sep-17 13:00N 01°13' E 103°49'5 9.4
2017-Sep-17 12:30N 01°14' E 103°54'2 4.7
2017-Sep-17 12:00N 01°14' E 103°56'4 8.8
2017-Sep-17 11:30N 01°16' E 104°00'  
2017-Sep-13 12:49N 22°26' E 113°53'2 7.2
2017-Sep-13 12:30N 22°24' E 113°54'13 0.9
2017-Sep-12 21:06N 22°20' E 114°07'28310.8
2017-Sep-11 18:57N 22°30' E 119°13'1218.8
2017-Sep-11 18:20N 22°31' E 119°25'619.2
2017-Sep-11 18:00N 22°31' E 119°32'1318.9
2017-Sep-11 17:18N 22°31' E 119°46'818.7
2017-Sep-11 16:53N 22°32' E 119°55'718.8
2017-Sep-11 16:31N 22°32' E 120°02'1019.1
2017-Sep-11 16:00N 22°33' E 120°13'612.4
2017-Sep-11 15:30N 22°33' E 120°19'0 0.9
2017-Sep-11 15:00N 22°33' E 120°20'0 0.0
2017-Sep-11 14:25N 22°33' E 120°20'0 0.0
2017-Sep-11 13:58N 22°33' E 120°20'0 0.0
2017-Sep-11 13:19N 22°33' E 120°20'0 0.0
2017-Sep-11 12:49N 22°33' E 120°20'0 0.0
2017-Sep-11 08:49N 22°33' E 120°20'0 0.0
2017-Sep-11 08:19N 22°33' E 120°20'0 0.0
2017-Sep-10 23:22N 22°33' E 120°20'0 0.0
2017-Sep-10 22:49N 22°33' E 120°20'0 0.0
2017-Sep-10 22:13N 22°33' E 120°20'0 0.0
2017-Sep-10 21:55N 22°33' E 120°20'0 0.0
2017-Sep-10 21:28N 22°33' E 120°20'0 0.0
2017-Sep-10 20:55N 22°33' E 120°20'0 0.0
2017-Sep-10 20:28N 22°33' E 120°20'0 0.0
2017-Sep-10 19:46N 22°33' E 120°20'0 0.0
2017-Sep-10 19:28N 22°33' E 120°20'0 0.0
2017-Sep-10 18:58N 22°33' E 120°20'0 0.0
2017-Sep-10 18:28N 22°33' E 120°20'0 0.0
2017-Sep-10 18:00N 22°33' E 120°20'1 2.5
2017-Sep-10 17:30N 22°33' E 120°18'4 8.0
2017-Sep-10 17:00N 22°32' E 120°14'510.3
2017-Sep-10 16:30N 22°28' E 120°10'816.8
2017-Sep-10 16:00N 22°22' E 120°04'1120.5
2017-Sep-10 15:30N 22°15' E 119°56'  

Dump ship's entire track history